Time;durP1;ratioP1;P1;durP2;ratioP2;P2;SDS_P1;SDS_P2;PMS_P1;PMS_P2;Temp;Humidity;BMP_temperature;BMP_pressure;BME280_temperature;BME280_humidity;BME280_pressure;Samples;Min_cycle;Max_cycle;Signal;HPM_P1;HPM_P2
2022/06/16 00:00:54;;;;;;;6.13;3.53;;;18.40;99.90;;;;;;5016555;28;20044;-70
2022/06/16 00:03:19;;;;;;;6.28;3.72;;;18.40;99.90;;;;;;5029187;28;20083;-72
2022/06/16 00:05:45;;;;;;;3.95;3.55;;;18.40;99.90;;;;;;5032146;28;20021;-70
2022/06/16 00:08:14;;;;;;;3.92;3.50;;;18.50;99.90;;;;;;5016713;28;20025;-70
2022/06/16 00:11:16;;;;;;;5.07;3.28;;;18.40;99.90;;;;;;5033285;28;20523;-71
2022/06/16 00:13:32;;;;;;;4.72;3.40;;;18.30;99.90;;;;;;5033092;28;20060;-71
2022/06/16 00:15:58;;;;;;;6.53;3.50;;;18.30;99.90;;;;;;5030295;28;20036;-70
2022/06/16 00:18:24;;;;;;;5.38;3.10;;;18.10;99.90;;;;;;5028124;28;20083;-71
2022/06/16 00:20:49;;;;;;;6.72;3.55;;;18.20;99.90;;;;;;5012972;28;20038;-70
2022/06/16 00:23:16;;;;;;;6.15;3.53;;;18.20;99.90;;;;;;5018435;28;20049;-70
2022/06/16 00:25:42;;;;;;;4.70;3.85;;;18.20;99.90;;;;;;5033346;28;20036;-70
2022/06/16 00:28:08;;;;;;;4.20;3.50;;;18.10;99.90;;;;;;5033249;28;20037;-70
2022/06/16 00:30:33;;;;;;;4.45;3.78;;;18.10;99.90;;;;;;5021054;28;20034;-71
2022/06/16 00:32:59;;;;;;;3.88;3.35;;;18.10;99.90;;;;;;5013376;28;20036;-70
2022/06/16 00:35:25;;;;;;;4.10;3.40;;;18.10;99.90;;;;;;5013419;28;20388;-70
2022/06/16 00:37:50;;;;;;;4.65;3.85;;;18.20;99.90;;;;;;5013317;28;20026;-70
2022/06/16 00:40:16;;;;;;;4.25;3.60;;;18.20;99.90;;;;;;5018096;28;20479;-73
2022/06/16 00:42:44;;;;;;;5.95;3.80;;;18.00;99.90;;;;;;5025387;28;20037;-71
2022/06/16 00:45:43;;;;;;;4.15;3.75;;;17.90;99.90;;;;;;5013054;28;20026;-71
2022/06/16 00:48:38;;;;;;;5.10;3.50;;;17.80;99.90;;;;;;4999397;28;20380;-70
2022/06/16 00:51:35;;;;;;;6.18;3.58;;;18.00;99.90;;;;;;5028801;28;20018;-71
2022/06/16 00:54:11;;;;;;;3.97;3.22;;;18.10;99.90;;;;;;5019095;28;20387;-72
2022/06/16 00:56:37;;;;;;;4.45;3.30;;;18.10;99.90;;;;;;5019044;28;20075;-71
2022/06/16 00:59:05;;;;;;;4.30;3.90;;;18.10;99.90;;;;;;5017763;28;20022;-71
2022/06/16 01:01:33;;;;;;;6.60;3.75;;;18.10;99.90;;;;;;5014224;28;20029;-71
2022/06/16 01:06:44;;;;;;;3.90;3.50;;;17.90;99.90;;;;;;5032844;28;20032;-72
2022/06/16 01:09:14;;;;;;;3.67;3.38;;;17.80;99.90;;;;;;5014275;28;20430;-72
2022/06/16 01:15:11;;;;;;;3.67;3.30;;;17.40;99.90;;;;;;5012398;28;20498;-72
2022/06/16 01:17:52;;;;;;;5.22;3.80;;;17.60;99.90;;;;;;5012909;28;20026;-73
2022/06/16 01:20:29;;;;;;;4.85;3.50;;;17.70;99.90;;;;;;5011908;28;20392;-72
2022/06/16 01:23:12;;;;;;;5.43;3.70;;;17.80;99.90;;;;;;5012534;28;20500;-72
2022/06/16 01:25:37;;;;;;;6.15;3.67;;;17.60;99.90;;;;;;4994902;28;20045;-72
2022/06/16 01:28:19;;;;;;;6.15;3.92;;;17.50;99.90;;;;;;5012301;28;20030;-73
2022/06/16 01:30:48;;;;;;;4.50;3.75;;;17.50;99.90;;;;;;5011890;28;20507;-72
2022/06/16 01:33:37;;;;;;;4.88;3.90;;;17.50;99.90;;;;;;5012180;28;20033;-72
2022/06/16 01:36:25;;;;;;;7.55;3.80;;;17.50;99.90;;;;;;5016127;28;20021;-71
2022/06/16 01:39:01;;;;;;;4.95;3.63;;;16.80;99.90;;;;;;5027133;28;20025;-70
2022/06/16 01:41:41;;;;;;;4.80;3.67;;;16.30;99.90;;;;;;5014420;28;20033;-71
2022/06/16 01:44:19;;;;;;;4.75;3.80;;;16.00;99.90;;;;;;5012310;28;20030;-73
2022/06/16 01:46:47;;;;;;;5.72;3.80;;;16.10;99.90;;;;;;5030120;28;20096;-71
2022/06/16 01:49:14;;;;;;;6.30;4.30;;;16.40;99.90;;;;;;5030014;28;20025;-71
2022/06/16 01:51:46;;;;;;;5.53;3.95;;;16.50;99.90;;;;;;5024668;28;20053;-72
2022/06/16 01:54:15;;;;;;;5.28;3.63;;;16.40;99.90;;;;;;5023201;28;20030;-71
2022/06/16 01:57:00;;;;;;;4.70;3.92;;;16.40;99.90;;;;;;5043720;28;20029;-71
2022/06/16 01:59:32;;;;;;;4.82;3.80;;;16.50;99.90;;;;;;5031688;28;20394;-73
2022/06/16 02:02:08;;;;;;;4.90;4.00;;;16.50;99.90;;;;;;5028424;28;20057;-72
2022/06/16 02:04:51;;;;;;;4.80;4.25;;;16.50;99.90;;;;;;5015883;28;20033;-72
2022/06/16 02:07:24;;;;;;;4.18;3.55;;;16.60;99.90;;;;;;5012044;28;20034;-72
2022/06/16 02:09:54;;;;;;;5.50;4.10;;;16.60;99.90;;;;;;5011819;28;20097;-72
2022/06/16 02:15:38;;;;;;;5.07;4.15;;;16.70;99.90;;;;;;5047014;23;20056;-74
2022/06/16 02:18:08;;;;;;;6.13;4.47;;;16.70;99.90;;;;;;5017312;28;20117;-73
2022/06/16 02:20:52;;;;;;;6.18;3.83;;;16.50;99.90;;;;;;5024440;28;20313;-72
2022/06/16 02:23:19;;;;;;;6.22;4.30;;;16.40;99.90;;;;;;5022019;28;20061;-73
2022/06/16 02:25:47;;;;;;;5.82;4.63;;;15.90;99.90;;;;;;5031272;28;20053;-74
2022/06/16 02:28:15;;;;;;;5.50;4.65;;;16.20;99.90;;;;;;5016239;28;20029;-74
2022/06/16 02:31:11;;;;;;;6.25;4.22;;;16.20;99.90;;;;;;5032465;28;20189;-73
2022/06/16 02:34:07;;;;;;;5.65;4.55;;;16.20;99.90;;;;;;4985242;28;20131;-74
2022/06/16 02:36:56;;;;;;;6.22;4.97;;;16.20;99.90;;;;;;5027027;28;20086;-75
2022/06/16 02:39:37;;;;;;;6.90;4.88;;;16.20;99.90;;;;;;5035494;28;20033;-75
2022/06/16 02:42:24;;;;;;;5.80;4.50;;;16.30;99.90;;;;;;5034620;28;20076;-75
2022/06/16 02:45:08;;;;;;;5.53;4.68;;;15.90;99.90;;;;;;5020617;28;20112;-75
2022/06/16 02:47:57;;;;;;;6.07;5.00;;;16.00;99.90;;;;;;5007397;28;20099;-74
2022/06/16 02:50:47;;;;;;;6.20;5.00;;;16.10;99.90;;;;;;5016582;28;20017;-75
2022/06/16 02:56:32;;;;;;;6.65;5.13;;;16.00;99.90;;;;;;5035057;28;20029;-75
2022/06/16 02:59:03;;;;;;;5.90;4.60;;;16.00;99.90;;;;;;5035111;28;20021;-75
2022/06/16 03:01:32;;;;;;;8.05;4.80;;;15.90;99.90;;;;;;5034300;28;20032;-75
2022/06/16 03:04:14;;;;;;;6.05;4.78;;;15.90;99.90;;;;;;5034841;28;20134;-73
2022/06/16 03:06:41;;;;;;;5.18;4.68;;;15.90;99.90;;;;;;5034854;28;20104;-75
2022/06/16 03:09:07;;;;;;;5.97;5.30;;;16.00;99.90;;;;;;5032304;28;20551;-74
2022/06/16 03:11:35;;;;;;;5.93;5.03;;;15.60;99.90;;;;;;5034030;28;20021;-74
2022/06/16 03:14:01;;;;;;;9.85;4.97;;;15.60;99.90;;;;;;5034401;28;20386;-74
2022/06/16 03:16:27;;;;;;;8.27;4.97;;;15.80;99.90;;;;;;5034882;28;20025;-74
2022/06/16 03:18:53;;;;;;;5.93;5.38;;;15.80;99.90;;;;;;5034648;28;20032;-74
2022/06/16 03:21:19;;;;;;;5.75;5.10;;;15.80;99.90;;;;;;5033876;28;20443;-74
2022/06/16 03:23:45;;;;;;;5.20;4.75;;;15.80;99.90;;;;;;5034450;28;20026;-75
2022/06/16 03:26:11;;;;;;;6.25;5.32;;;15.70;99.90;;;;;;5034727;28;20079;-74
2022/06/16 03:28:37;;;;;;;6.00;5.38;;;15.50;99.90;;;;;;5034301;28;20476;-74
2022/06/16 03:31:03;;;;;;;5.60;4.95;;;15.20;99.90;;;;;;5032581;28;20120;-75
2022/06/16 03:33:29;;;;;;;5.38;4.82;;;15.60;99.90;;;;;;5034292;28;20031;-75
2022/06/16 03:35:55;;;;;;;7.07;4.88;;;15.50;99.90;;;;;;5034229;28;20052;-75
2022/06/16 03:38:41;;;;;;;6.00;4.90;;;15.70;99.90;;;;;;5034158;28;20103;-74
2022/06/16 03:41:06;;;;;;;5.97;4.90;;;15.80;99.90;;;;;;5033588;28;20451;-74
2022/06/16 03:43:32;;;;;;;7.85;4.93;;;16.10;99.90;;;;;;5034138;28;20105;-75
2022/06/16 03:45:58;;;;;;;8.23;5.18;;;15.80;99.90;;;;;;5034506;28;20040;-74
2022/06/16 03:48:23;;;;;;;7.93;4.60;;;15.90;99.90;;;;;;5032389;28;20434;-74
2022/06/16 03:50:49;;;;;;;5.60;4.97;;;16.20;99.90;;;;;;5038666;28;20399;-74
2022/06/16 03:53:15;;;;;;;5.93;4.60;;;16.30;99.90;;;;;;5033976;28;20021;-74
2022/06/16 03:55:40;;;;;;;6.22;4.82;;;16.60;99.90;;;;;;5033930;28;20075;-73
2022/06/16 03:58:06;;;;;;;5.95;5.30;;;16.50;99.90;;;;;;5016203;28;20507;-74
2022/06/16 04:00:33;;;;;;;6.97;5.10;;;16.40;99.90;;;;;;5033227;28;20060;-74
2022/06/16 04:05:43;;;;;;;5.95;5.32;;;16.60;99.90;;;;;;5033751;28;20032;-74
2022/06/16 04:08:11;;;;;;;7.45;5.10;;;16.50;99.90;;;;;;5033737;28;20034;-74
2022/06/16 04:10:37;;;;;;;8.07;5.53;;;16.40;99.90;;;;;;5031814;28;20017;-74
2022/06/16 04:13:03;;;;;;;5.75;5.10;;;15.80;99.90;;;;;;5033688;28;20025;-74
2022/06/16 04:15:29;;;;;;;6.35;5.15;;;15.30;99.90;;;;;;5033126;28;20025;-74
2022/06/16 04:17:55;;;;;;;6.28;4.57;;;15.40;99.90;;;;;;5033420;28;20037;-75
2022/06/16 04:20:21;;;;;;;5.95;5.35;;;15.90;99.90;;;;;;5032842;28;20079;-75
2022/06/16 04:22:50;;;;;;;5.80;5.18;;;16.00;99.90;;;;;;5015642;28;20033;-75
2022/06/16 04:25:17;;;;;;;6.07;5.32;;;16.00;99.90;;;;;;5033367;28;20108;-75
2022/06/16 04:27:44;;;;;;;6.18;5.07;;;15.50;99.90;;;;;;5033179;28;20026;-75
2022/06/16 04:30:10;;;;;;;7.22;5.28;;;15.70;99.90;;;;;;5032948;28;20116;-73
2022/06/16 04:32:36;;;;;;;7.80;5.30;;;15.70;99.90;;;;;;5033172;28;20108;-74
2022/06/16 04:35:01;;;;;;;9.68;5.50;;;15.70;99.90;;;;;;5033138;28;20055;-74
2022/06/16 04:37:27;;;;;;;7.75;5.60;;;15.50;99.90;;;;;;5033356;28;20123;-74
2022/06/16 04:39:53;;;;;;;9.77;5.75;;;15.60;99.90;;;;;;5033047;28;20105;-74
2022/06/16 04:42:19;;;;;;;8.27;6.00;;;15.40;99.90;;;;;;5033000;28;20026;-75
2022/06/16 04:44:45;;;;;;;6.13;5.40;;;15.40;99.90;;;;;;5032844;28;20022;-75
2022/06/16 04:47:11;;;;;;;6.93;5.47;;;15.50;99.90;;;;;;5034056;28;20120;-74
2022/06/16 04:49:37;;;;;;;6.18;5.63;;;15.80;99.90;;;;;;5028766;28;20032;-74
2022/06/16 04:52:04;;;;;;;6.75;5.80;;;15.90;99.90;;;;;;5031929;28;20101;-74
2022/06/16 04:54:30;;;;;;;6.82;6.03;;;16.10;99.90;;;;;;5032728;28;20048;-73
2022/06/16 04:56:56;;;;;;;6.45;5.75;;;16.30;99.90;;;;;;5032748;28;20057;-73
2022/06/16 04:59:21;;;;;;;5.63;4.78;;;16.50;99.90;;;;;;5032536;28;20045;-74
2022/06/16 05:01:47;;;;;;;6.57;5.40;;;16.60;99.90;;;;;;5032189;28;20036;-76
2022/06/16 05:04:13;;;;;;;6.18;5.43;;;16.80;99.90;;;;;;5032514;28;20056;-73
2022/06/16 05:06:38;;;;;;;5.82;5.22;;;16.80;99.90;;;;;;5032662;28;20047;-75
2022/06/16 05:09:04;;;;;;;8.05;5.93;;;17.10;99.90;;;;;;5033029;28;20071;-73
2022/06/16 05:11:30;;;;;;;8.20;6.18;;;17.40;99.90;;;;;;5014585;28;20021;-74
2022/06/16 05:13:55;;;;;;;8.07;5.22;;;17.60;99.90;;;;;;5014439;28;20028;-75
2022/06/16 05:16:21;;;;;;;5.85;4.93;;;17.70;99.90;;;;;;5032521;28;20060;-74
2022/06/16 05:18:47;;;;;;;6.45;5.43;;;17.80;99.90;;;;;;5032292;28;20036;-75
2022/06/16 05:21:14;;;;;;;6.35;4.95;;;17.90;99.90;;;;;;5031689;28;20415;-73
2022/06/16 05:23:41;;;;;;;7.90;5.07;;;17.80;99.90;;;;;;5032461;28;20026;-75
2022/06/16 05:26:08;;;;;;;7.03;5.30;;;17.80;99.90;;;;;;5032504;28;20021;-77
2022/06/16 05:28:35;;;;;;;5.28;4.80;;;17.70;99.90;;;;;;5032347;28;20078;-73
2022/06/16 05:31:01;;;;;;;8.45;5.15;;;17.70;99.90;;;;;;5031892;28;20025;-72
2022/06/16 05:33:27;;;;;;;5.90;5.30;;;17.90;99.90;;;;;;5024886;28;20490;-75
2022/06/16 05:35:55;;;;;;;7.38;5.13;;;18.00;99.90;;;;;;5032396;28;20387;-73
2022/06/16 05:38:21;;;;;;;8.30;5.38;;;17.90;99.90;;;;;;5032137;28;20017;-73
2022/06/16 05:40:46;;;;;;;6.18;5.13;;;18.00;99.90;;;;;;5026249;28;20036;-73
2022/06/16 05:43:12;;;;;;;6.38;5.38;;;18.50;99.90;;;;;;5033358;28;20552;-74
2022/06/16 05:45:38;;;;;;;5.82;5.22;;;18.40;99.90;;;;;;5032043;28;20387;-74
2022/06/16 05:48:03;;;;;;;8.77;5.25;;;18.50;99.90;;;;;;5031905;28;20087;-74
2022/06/16 05:50:29;;;;;;;6.55;4.97;;;18.70;99.90;;;;;;5013537;28;20022;-74
2022/06/16 05:52:55;;;;;;;6.25;5.05;;;18.80;99.90;;;;;;5014188;28;20017;-75
2022/06/16 05:55:20;;;;;;;5.65;4.80;;;19.00;99.90;;;;;;5014265;28;20116;-74
2022/06/16 05:57:46;;;;;;;6.13;4.75;;;19.20;99.90;;;;;;5014064;28;20025;-74
2022/06/16 06:00:13;;;;;;;6.00;5.07;;;18.90;99.90;;;;;;5031691;28;20494;-74
2022/06/16 06:02:38;;;;;;;7.68;5.30;;;19.20;99.90;;;;;;5013053;28;20029;-74
2022/06/16 06:05:06;;;;;;;5.53;4.93;;;19.30;99.90;;;;;;5031793;28;20029;-73
2022/06/16 06:16:25;;;;;;;5.05;4.47;;;19.50;99.90;;;;;;5013938;28;20433;-74
2022/06/16 06:18:29;;;;;;;8.00;5.07;;;19.90;99.90;;;;;;5031445;28;20035;-74
2022/06/16 06:20:54;;;;;;;6.47;5.28;;;20.10;99.90;;;;;;5015287;28;20128;-74
2022/06/16 06:23:20;;;;;;;6.13;4.93;;;20.10;99.90;;;;;;5031745;28;20037;-74
2022/06/16 06:25:46;;;;;;;6.32;5.18;;;20.10;99.90;;;;;;5031659;28;20072;-74
2022/06/16 06:28:18;;;;;;;5.70;4.90;;;20.00;99.90;;;;;;5031553;28;20022;-74
2022/06/16 06:30:43;;;;;;;7.32;5.28;;;20.30;99.90;;;;;;5030962;28;20025;-74
2022/06/16 06:33:09;;;;;;;5.53;4.88;;;20.00;99.90;;;;;;5031604;28;20029;-74
2022/06/16 06:35:34;;;;;;;6.53;4.93;;;19.80;99.90;;;;;;5031477;28;20479;-73
2022/06/16 06:38:00;;;;;;;7.35;5.78;;;19.90;99.90;;;;;;5031531;28;20033;-72
2022/06/16 06:40:36;;;;;;;7.10;5.47;;;20.10;99.90;;;;;;5030893;28;20022;-74
2022/06/16 06:43:03;;;;;;;7.97;5.13;;;20.40;99.90;;;;;;5030387;28;20087;-74
2022/06/16 06:45:29;;;;;;;6.05;4.80;;;20.30;99.90;;;;;;5031441;28;20021;-74
2022/06/16 06:47:55;;;;;;;6.28;5.18;;;20.90;99.90;;;;;;5031494;28;20033;-73
2022/06/16 06:50:37;;;;;;;9.18;4.97;;;21.10;99.90;;;;;;5019458;28;20050;-73
2022/06/16 06:53:03;;;;;;;5.60;5.03;;;20.80;99.90;;;;;;5026650;28;20494;-70
2022/06/16 06:55:29;;;;;;;5.93;4.95;;;20.90;99.90;;;;;;5031252;28;20100;-74
2022/06/16 06:57:55;;;;;;;11.02;5.78;;;21.20;99.90;;;;;;5031339;28;20033;-73
2022/06/16 07:00:24;;;;;;;6.35;5.32;;;21.20;99.90;;;;;;5030665;28;20052;-74
2022/06/16 07:02:49;;;;;;;5.55;4.97;;;21.30;99.90;;;;;;5031282;28;20717;-74
2022/06/16 07:05:15;;;;;;;7.10;5.18;;;21.30;99.90;;;;;;5031175;28;20036;-74
2022/06/16 07:07:41;;;;;;;6.20;5.60;;;21.40;99.90;;;;;;5031218;28;20083;-74
2022/06/16 07:10:08;;;;;;;6.45;5.00;;;21.60;99.90;;;;;;5031138;28;20108;-72
2022/06/16 07:12:34;;;;;;;7.50;5.75;;;22.10;99.90;;;;;;5030609;28;20518;-74
2022/06/16 07:15:00;;;;;;;6.50;5.18;;;21.90;99.90;;;;;;5034413;28;20037;-74
2022/06/16 07:17:27;;;;;;;7.70;5.13;;;21.70;99.90;;;;;;5029142;28;20021;-76
2022/06/16 07:19:54;;;;;;;5.93;5.30;;;21.50;99.90;;;;;;5034876;28;20048;-73
2022/06/16 07:22:20;;;;;;;7.30;5.32;;;21.80;99.90;;;;;;5034259;28;20025;-72
2022/06/16 07:24:46;;;;;;;6.78;4.90;;;21.90;99.90;;;;;;5034622;28;20060;-74
2022/06/16 07:27:12;;;;;;;6.90;5.43;;;21.80;99.90;;;;;;5034756;28;20056;-73
2022/06/16 07:29:38;;;;;;;6.95;5.18;;;21.90;99.90;;;;;;5034564;28;20032;-73
2022/06/16 07:32:04;;;;;;;5.90;5.30;;;22.10;99.90;;;;;;5034041;28;20532;-74
2022/06/16 07:34:30;;;;;;;5.85;5.30;;;22.30;99.90;;;;;;5034542;28;20052;-73
2022/06/16 07:36:56;;;;;;;8.00;5.60;;;22.20;99.90;;;;;;5034552;28;20097;-73
2022/06/16 07:39:22;;;;;;;7.93;5.60;;;21.80;99.90;;;;;;5034463;28;20093;-73
2022/06/16 07:41:48;;;;;;;6.65;5.95;;;22.20;99.90;;;;;;5033771;28;20033;-74
2022/06/16 07:44:16;;;;;;;8.45;5.90;;;22.50;99.90;;;;;;5034273;28;20033;-74
2022/06/16 07:46:44;;;;;;;7.38;5.80;;;22.60;99.90;;;;;;5034283;28;20030;-74
2022/06/16 07:49:15;;;;;;;6.70;5.95;;;22.60;99.90;;;;;;5032391;28;20025;-74
2022/06/16 07:51:42;;;;;;;8.80;5.75;;;23.00;99.90;;;;;;5030866;28;20021;-74
2022/06/16 07:54:08;;;;;;;6.20;5.63;;;23.20;99.90;;;;;;5034294;28;20028;-74
2022/06/16 07:56:34;;;;;;;6.72;5.63;;;22.90;99.90;;;;;;5034180;28;20490;-74
2022/06/16 07:58:59;;;;;;;7.22;5.90;;;23.00;99.90;;;;;;5032689;28;20034;-74
2022/06/16 08:01:25;;;;;;;8.75;5.60;;;23.20;99.90;;;;;;5033349;28;20030;-74
2022/06/16 08:03:50;;;;;;;6.25;5.65;;;23.10;99.90;;;;;;5016206;28;20570;-74
2022/06/16 08:06:20;;;;;;;6.97;5.53;;;23.40;99.90;;;;;;5033852;28;20052;-74
2022/06/16 08:08:46;;;;;;;6.63;5.55;;;23.60;99.90;;;;;;5032534;28;20376;-74
2022/06/16 08:13:59;;;;;;;6.47;4.90;;;23.70;99.90;;;;;;5034337;28;20036;-74
2022/06/16 08:16:25;;;;;;;6.13;5.50;;;23.40;99.90;;;;;;5033600;28;20029;-74
2022/06/16 08:18:50;;;;;;;5.82;5.22;;;23.50;99.90;;;;;;5033516;28;20033;-74
2022/06/16 08:21:16;;;;;;;6.55;5.25;;;23.60;99.90;;;;;;5027144;28;20033;-74
2022/06/16 08:23:42;;;;;;;8.27;4.80;;;23.70;99.90;;;;;;5033355;28;20113;-74
2022/06/16 08:26:10;;;;;;;5.75;4.50;;;23.60;99.90;;;;;;5032838;28;20025;-74
2022/06/16 08:28:38;;;;;;;4.80;4.35;;;23.60;99.90;;;;;;5033467;28;20033;-74
2022/06/16 08:31:05;;;;;;;5.30;4.78;;;23.60;99.90;;;;;;5032979;28;20025;-75
2022/06/16 08:33:31;;;;;;;4.97;4.43;;;23.40;99.90;;;;;;5033406;28;20058;-73
2022/06/16 08:35:57;;;;;;;5.53;4.53;;;23.20;99.90;;;;;;5033439;28;20072;-74
2022/06/16 08:38:23;;;;;;;10.77;5.07;;;23.00;99.90;;;;;;5033336;28;20026;-74
2022/06/16 08:41:11;;;;;;;5.43;4.60;;;23.20;99.90;;;;;;5032721;28;20075;-74
2022/06/16 08:43:48;;;;;;;6.65;4.72;;;23.50;99.90;;;;;;5033204;28;20033;-74
2022/06/16 08:46:17;;;;;;;5.68;4.32;;;23.60;99.90;;;;;;5033274;28;20067;-74
2022/06/16 08:48:58;;;;;;;5.22;4.72;;;23.60;99.90;;;;;;5032905;28;20021;-74
2022/06/16 08:51:45;;;;;;;5.00;4.55;;;23.60;99.90;;;;;;5027462;28;20021;-73
2022/06/16 08:54:37;;;;;;;7.05;4.45;;;24.30;99.90;;;;;;5032980;28;20021;-73
2022/06/16 08:57:20;;;;;;;6.47;4.30;;;24.60;99.90;;;;;;5025401;28;20032;-74
2022/06/16 09:00:07;;;;;;;8.90;4.20;;;25.00;99.90;;;;;;5031076;28;20056;-73
2022/06/16 09:02:46;;;;;;;7.68;4.68;;;25.00;99.90;;;;;;5011104;28;20112;-73
2022/06/16 09:05:21;;;;;;;8.07;4.15;;;25.00;99.90;;;;;;5021288;28;20129;-73
2022/06/16 09:07:52;;;;;;;7.05;4.60;;;25.00;99.90;;;;;;5030728;28;20079;-73
2022/06/16 09:10:57;;;;;;;5.20;4.47;;;25.20;99.90;;;;;;5004932;28;20383;-73
2022/06/16 09:13:48;;;;;;;7.03;4.78;;;25.80;99.90;;;;;;5032612;28;20045;-73
2022/06/16 09:16:28;;;;;;;6.30;4.18;;;25.80;99.90;;;;;;5032626;28;20026;-74
2022/06/16 09:19:25;;;;;;;6.75;4.40;;;25.20;99.90;;;;;;5014774;28;20021;-75
2022/06/16 09:22:05;;;;;;;7.18;4.22;;;25.60;99.90;;;;;;5022674;28;20049;-75
2022/06/16 09:24:59;;;;;;;6.57;4.05;;;25.40;99.90;;;;;;5019353;28;20033;-74
2022/06/16 09:27:31;;;;;;;6.88;4.13;;;25.70;99.90;;;;;;5032462;28;20032;-74
2022/06/16 09:30:02;;;;;;;4.95;3.80;;;25.70;99.90;;;;;;5032356;28;20037;-74
2022/06/16 09:32:32;;;;;;;5.22;4.10;;;25.80;99.60;;;;;;5031630;28;20068;-74
2022/06/16 09:35:04;;;;;;;5.07;3.95;;;25.60;99.80;;;;;;5032374;28;20101;-73
2022/06/16 09:37:44;;;;;;;7.55;4.38;;;25.60;99.90;;;;;;5012626;28;20645;-74
2022/06/16 09:40:26;;;;;;;7.95;3.97;;;25.40;99.90;;;;;;5027680;28;20036;-75
2022/06/16 09:42:59;;;;;;;5.53;4.13;;;25.70;99.90;;;;;;5022321;28;20025;-74
2022/06/16 09:45:35;;;;;;;6.82;4.03;;;25.50;99.40;;;;;;5032067;28;20043;-74
2022/06/16 09:48:13;;;;;;;6.32;3.92;;;25.40;99.80;;;;;;5020486;28;20033;-75
2022/06/16 09:51:03;;;;;;;7.05;3.85;;;25.70;99.90;;;;;;5031555;28;20374;-75
2022/06/16 09:53:37;;;;;;;4.78;4.18;;;25.60;99.90;;;;;;5031598;28;20044;-74
2022/06/16 09:56:26;;;;;;;5.78;3.80;;;25.90;99.90;;;;;;5032070;28;20028;-74
2022/06/16 09:59:03;;;;;;;7.38;4.22;;;25.80;99.90;;;;;;5021609;28;20087;-74
2022/06/16 10:01:35;;;;;;;6.10;4.20;;;26.00;99.90;;;;;;5031338;28;20118;-74
2022/06/16 10:04:05;;;;;;;4.10;3.80;;;26.00;99.90;;;;;;5031796;28;20048;-74
2022/06/16 10:06:40;;;;;;;5.13;3.90;;;26.30;99.80;;;;;;5031911;28;20083;-74
2022/06/16 10:09:27;;;;;;;8.38;4.43;;;26.60;98.80;;;;;;5031798;28;20022;-74
2022/06/16 10:12:05;;;;;;;6.25;4.15;;;26.30;98.80;;;;;;5020802;28;20030;-74
2022/06/16 10:14:46;;;;;;;11.50;4.50;;;26.10;98.70;;;;;;5031563;28;20501;-75
2022/06/16 10:17:15;;;;;;;6.40;3.75;;;26.60;99.00;;;;;;5031694;28;20030;-74
2022/06/16 10:19:44;;;;;;;5.38;3.80;;;27.20;99.10;;;;;;5031658;28;20483;-74
2022/06/16 10:22:13;;;;;;;5.97;4.20;;;27.10;98.40;;;;;;5031018;28;20101;-74
2022/06/16 10:24:55;;;;;;;5.90;4.00;;;27.20;99.20;;;;;;5031503;28;20108;-75
2022/06/16 10:27:25;;;;;;;6.95;4.70;;;26.90;98.30;;;;;;5031602;28;20021;-74
2022/06/16 10:29:57;;;;;;;6.32;4.25;;;26.90;98.30;;;;;;5031457;28;20029;-74
2022/06/16 10:32:42;;;;;;;7.45;4.20;;;26.70;98.30;;;;;;5015046;28;20390;-74
2022/06/16 10:35:18;;;;;;;6.15;4.20;;;26.70;98.50;;;;;;5031423;28;20036;-75
2022/06/16 10:37:47;;;;;;;6.43;4.38;;;26.70;98.00;;;;;;5031696;28;20026;-75
2022/06/16 10:40:25;;;;;;;8.45;4.38;;;27.60;98.40;;;;;;5017647;28;20029;-74
2022/06/16 10:42:54;;;;;;;6.25;4.38;;;27.40;97.40;;;;;;5031507;28;20021;-74
2022/06/16 10:45:33;;;;;;;7.25;3.95;;;27.30;98.20;;;;;;5031392;28;20027;-74
2022/06/16 10:48:03;;;;;;;5.50;4.78;;;27.40;97.70;;;;;;5031636;28;20026;-75
2022/06/16 10:50:47;;;;;;;6.03;3.97;;;27.60;97.00;;;;;;5040536;28;20025;-75
2022/06/16 10:53:31;;;;;;;5.68;4.15;;;27.70;96.90;;;;;;5038723;28;20021;-75
2022/06/16 10:56:06;;;;;;;6.15;4.70;;;28.00;97.00;;;;;;5035213;28;20025;-75
2022/06/16 10:58:42;;;;;;;7.45;4.40;;;27.60;96.70;;;;;;5009046;28;20387;-76
2022/06/16 11:01:23;;;;;;;7.25;4.55;;;27.40;96.80;;;;;;5034601;28;20507;-75
2022/06/16 11:04:02;;;;;;;5.88;4.38;;;27.90;97.00;;;;;;5026960;28;20030;-75
2022/06/16 11:06:29;;;;;;;6.57;4.43;;;27.90;96.50;;;;;;5035059;28;20033;-76
2022/06/16 11:09:01;;;;;;;5.43;4.78;;;28.30;96.50;;;;;;5034903;28;20391;-75
2022/06/16 11:11:40;;;;;;;4.93;4.40;;;28.60;95.70;;;;;;5034494;28;20014;-75
2022/06/16 11:14:12;;;;;;;7.20;4.75;;;28.40;96.10;;;;;;5034700;28;20638;-74
2022/06/16 11:16:47;;;;;;;7.93;5.13;;;28.40;96.00;;;;;;5034923;28;20570;-76
2022/06/16 11:19:27;;;;;;;4.88;4.47;;;28.40;96.60;;;;;;5034705;28;20033;-75
2022/06/16 11:21:53;;;;;;;5.43;4.53;;;28.60;96.80;;;;;;5016791;28;20124;-75
2022/06/16 11:24:26;;;;;;;5.45;4.85;;;29.10;94.70;;;;;;5034663;28;20021;-75
2022/06/16 11:27:02;;;;;;;7.18;4.78;;;29.20;95.40;;;;;;5034731;28;20071;-75
2022/06/16 11:29:33;;;;;;;5.13;4.55;;;29.00;95.30;;;;;;5021604;28;20115;-75
2022/06/16 11:32:14;;;;;;;5.38;4.75;;;29.10;95.30;;;;;;5034004;28;20025;-75
2022/06/16 11:34:41;;;;;;;5.03;4.50;;;29.30;94.90;;;;;;5034470;28;20212;-75
2022/06/16 11:37:30;;;;;;;5.60;4.45;;;29.60;94.80;;;;;;5034567;28;20025;-75
2022/06/16 11:40:32;;;;;;;6.15;4.40;;;29.70;94.10;;;;;;5026886;28;20038;-75
2022/06/16 11:43:15;;;;;;;6.70;4.32;;;29.50;93.80;;;;;;5025927;28;20022;-75
2022/06/16 11:45:56;;;;;;;5.00;4.38;;;28.90;94.10;;;;;;5021330;28;20029;-75
2022/06/16 11:48:46;;;;;;;7.80;4.57;;;28.50;93.50;;;;;;5034189;28;20030;-75
2022/06/16 11:51:35;;;;;;;6.22;3.83;;;28.90;94.30;;;;;;5015125;28;20022;-75
2022/06/16 11:54:22;;;;;;;5.82;4.03;;;28.50;93.90;;;;;;5023623;28;20057;-75
2022/06/16 11:57:17;;;;;;;6.47;4.20;;;28.20;93.40;;;;;;5017486;28;20460;-75
2022/06/16 12:00:33;;;;;;;5.15;3.88;;;28.00;93.20;;;;;;5033075;28;20117;-75
2022/06/16 12:03:35;;;;;;;3.97;3.47;;;28.80;93.50;;;;;;4969428;28;20050;-75
2022/06/16 12:06:43;;;;;;;4.03;3.40;;;29.00;92.20;;;;;;5034082;28;20407;-75
2022/06/16 12:09:28;;;;;;;6.72;3.30;;;28.50;92.10;;;;;;5021989;28;20041;-75
2022/06/16 12:12:32;;;;;;;5.28;3.50;;;28.50;92.20;;;;;;5033220;28;20479;-75
2022/06/16 12:15:13;;;;;;;6.72;3.50;;;28.40;93.30;;;;;;5008749;28;20052;-75
2022/06/16 12:18:07;;;;;;;6.95;3.30;;;29.10;92.20;;;;;;5033699;28;20155;-75
2022/06/16 12:20:51;;;;;;;4.05;3.10;;;29.60;91.70;;;;;;5032978;28;20068;-74
2022/06/16 12:23:33;;;;;;;5.18;3.30;;;29.40;91.50;;;;;;5033526;28;20040;-74
2022/06/16 12:26:29;;;;;;;4.65;3.17;;;29.30;90.80;;;;;;5033547;28;20017;-74
2022/06/16 12:29:05;;;;;;;4.18;3.30;;;29.10;91.60;;;;;;5031866;28;20156;-74
2022/06/16 12:31:56;;;;;;;5.13;3.45;;;29.00;91.70;;;;;;5032756;28;20052;-75
2022/06/16 12:34:47;;;;;;;5.32;3.58;;;29.90;92.00;;;;;;5033320;28;20074;-74
2022/06/16 12:37:17;;;;;;;4.18;3.22;;;29.20;91.30;;;;;;5033290;28;20022;-73
2022/06/16 12:39:54;;;;;;;5.88;3.20;;;28.80;91.80;;;;;;5033248;28;20053;-75
2022/06/16 12:42:23;;;;;;;5.82;3.20;;;29.70;92.00;;;;;;5032693;28;20025;-74
2022/06/16 12:45:09;;;;;;;7.22;3.10;;;29.90;90.90;;;;;;5032829;28;20018;-74
2022/06/16 12:47:47;;;;;;;4.25;3.30;;;29.70;91.60;;;;;;5015210;28;20029;-74
2022/06/16 12:50:21;;;;;;;4.05;2.95;;;30.00;90.80;;;;;;5032569;28;20026;-75
2022/06/16 12:52:57;;;;;;;4.32;3.33;;;30.20;90.40;;;;;;5032901;28;20388;-74
2022/06/16 12:55:33;;;;;;;5.20;3.05;;;30.20;90.60;;;;;;5032465;28;20533;-74
2022/06/16 12:58:08;;;;;;;3.75;3.15;;;30.80;90.40;;;;;;5032907;28;20031;-74
2022/06/16 13:00:41;;;;;;;4.38;3.60;;;30.60;90.10;;;;;;5032032;28;20029;-75
2022/06/16 13:03:15;;;;;;;5.22;3.28;;;30.70;90.10;;;;;;5032698;28;20095;-75
2022/06/16 13:05:43;;;;;;;4.43;2.95;;;31.40;91.00;;;;;;5032654;28;20155;-74
2022/06/16 13:08:09;;;;;;;5.60;3.08;;;30.50;88.70;;;;;;5032504;28;20087;-75
2022/06/16 13:10:44;;;;;;;5.07;2.60;;;30.40;88.40;;;;;;5032018;28;20026;-74
2022/06/16 13:13:11;;;;;;;5.32;3.28;;;29.30;89.20;;;;;;5032472;28;20517;-73
2022/06/16 13:15:43;;;;;;;4.53;3.10;;;28.60;87.40;;;;;;5032405;28;20395;-74
2022/06/16 13:18:20;;;;;;;6.18;3.53;;;29.30;87.80;;;;;;5032401;28;20037;-74
2022/06/16 13:20:51;;;;;;;5.05;3.20;;;30.10;87.90;;;;;;5031764;28;20025;-75
2022/06/16 13:23:33;;;;;;;5.38;3.20;;;29.10;87.50;;;;;;5032530;28;20021;-74
2022/06/16 13:26:38;;;;;;;5.80;3.38;;;28.60;87.60;;;;;;5032559;28;20441;-74
2022/06/16 13:29:06;;;;;;;4.00;3.38;;;28.90;88.00;;;;;;5034575;28;20029;-75
2022/06/16 13:31:56;;;;;;;4.85;2.60;;;29.00;87.60;;;;;;5033116;28;20056;-75
2022/06/16 13:34:52;;;;;;;3.60;2.90;;;28.80;87.40;;;;;;5035073;28;20030;-75
2022/06/16 13:37:31;;;;;;;6.20;3.28;;;29.80;84.70;;;;;;5033237;28;20079;-74
2022/06/16 13:40:15;;;;;;;8.52;3.10;;;30.50;86.80;;;;;;5033441;28;20025;-74
2022/06/16 13:42:55;;;;;;;3.83;3.08;;;30.40;86.00;;;;;;5030444;28;20030;-74